Time;durP1;ratioP1;P1;durP2;ratioP2;P2;SDS_P1;SDS_P2;PMS_P1;PMS_P2;Temp;Humidity;BMP_temperature;BMP_pressure;BME280_temperature;BME280_humidity;BME280_pressure;Samples;Min_cycle;Max_cycle;Signal;HPM_P1;HPM_P2
2021/07/12 00:02:11;;;;;;;29.57;23.07;;;;;;;20.01;91.79;100123.73;126975;1087;104056;-85
2021/07/12 00:04:59;;;;;;;32.10;24.03;;;;;;;19.95;91.55;100111.80;126765;1086;114636;-85
2021/07/12 00:07:47;;;;;;;29.23;23.40;;;;;;;19.88;91.59;100121.13;126812;1085;102943;-85
2021/07/12 00:10:36;;;;;;;30.97;23.60;;;;;;;19.89;91.41;100120.16;126780;1087;114789;-84
2021/07/12 00:13:24;;;;;;;33.90;26.60;;;;;;;19.85;91.17;100118.70;126951;1088;102894;-84
2021/07/12 00:16:12;;;;;;;45.77;31.37;;;;;;;19.82;92.41;100113.64;126754;1087;114798;-85
2021/07/12 00:19:10;;;;;;;51.03;33.83;;;;;;;19.89;92.08;100105.13;126900;1087;103083;-85
2021/07/12 00:21:57;;;;;;;56.13;34.27;;;;;;;19.83;91.66;100116.17;126847;1087;114703;-85
2021/07/12 00:24:45;;;;;;;53.73;35.43;;;;;;;19.79;91.89;100120.00;126909;1087;102916;-83
2021/07/12 00:27:34;;;;;;;47.75;32.25;;;;;;;19.77;92.38;100108.69;126786;1087;114377;-85
2021/07/12 00:30:43;;;;;;;46.67;31.10;;;;;;;19.78;92.46;100107.73;126954;1087;102937;-83
2021/07/12 00:33:32;;;;;;;43.17;28.63;;;;;;;19.79;92.07;100108.58;126816;1087;114494;-85
2021/07/12 00:36:24;;;;;;;40.73;28.43;;;;;;;19.76;92.32;100109.64;126948;1087;102932;-85
2021/07/12 00:39:32;;;;;;;38.33;26.97;;;;;;;19.76;92.31;100112.29;126880;1087;102900;-85
2021/07/12 00:42:20;;;;;;;37.93;26.05;;;;;;;19.73;92.29;100117.78;126841;1087;102842;-85
2021/07/12 00:45:16;;;;;;;35.60;25.63;;;;;;;19.71;92.33;100117.05;126841;1087;102947;-85
2021/07/12 00:48:07;;;;;;;34.43;26.53;;;;;;;19.72;92.70;100124.03;126796;1087;114228;-84
2021/07/12 00:51:15;;;;;;;33.07;25.57;;;;;;;19.67;92.14;100123.52;126830;1087;102857;-85
2021/07/12 00:54:08;;;;;;;36.27;25.93;;;;;;;19.64;92.15;100128.20;126749;1087;114455;-86
2021/07/12 00:57:16;;;;;;;35.63;25.47;;;;;;;19.68;92.90;100133.15;126885;1087;102914;-85
2021/07/12 01:00:13;;;;;;;38.98;27.98;;;;;;;19.69;92.93;100129.55;126748;1087;114447;-85
2021/07/12 01:03:05;;;;;;;35.33;25.83;;;;;;;19.63;92.61;100122.06;126877;1087;102983;-85
2021/07/12 01:05:56;;;;;;;38.23;25.37;;;;;;;19.68;92.88;100130.50;126840;1087;114497;-85
2021/07/12 01:08:45;;;;;;;35.13;25.37;;;;;;;19.68;92.93;100125.21;126884;1087;103473;-85
2021/07/12 01:11:58;;;;;;;33.80;25.45;;;;;;;19.71;93.11;100129.44;126853;1087;114461;-85
2021/07/12 01:14:53;;;;;;;33.73;24.90;;;;;;;19.71;93.16;100117.05;126968;1088;104051;-83
2021/07/12 01:18:13;;;;;;;32.47;25.10;;;;;;;19.65;92.47;100117.50;126820;1086;113423;-85
2021/07/12 01:21:42;;;;;;;33.87;24.60;;;;;;;19.60;92.27;100117.83;126935;1087;102844;-83
2021/07/12 01:24:56;;;;;;;34.67;25.53;;;;;;;19.56;92.69;100107.56;126980;1087;102821;-83
2021/07/12 01:28:22;;;;;;;37.23;25.53;;;;;;;19.54;92.89;100112.12;126955;1087;102967;-85
2021/07/12 01:31:47;;;;;;;34.57;25.90;;;;;;;19.51;93.28;100109.66;126957;1087;102989;-85
2021/07/12 01:35:15;;;;;;;36.33;25.00;;;;;;;19.43;92.72;100104.09;126874;1087;102943;-85
2021/07/12 01:38:31;;;;;;;30.63;23.97;;;;;;;19.44;93.41;100106.63;126667;1088;102965;-85
2021/07/12 01:41:46;;;;;;;29.37;22.63;;;;;;;19.47;93.12;100101.11;126509;1087;115204;-84
2021/07/12 01:44:46;;;;;;;33.70;22.97;;;;;;;19.41;92.86;100098.06;126688;1090;102900;-84
2021/07/12 01:48:02;;;;;;;31.60;22.83;;;;;;;19.44;93.40;100103.13;126593;1088;114776;-85
2021/07/12 01:50:57;;;;;;;32.90;23.53;;;;;;;19.44;93.49;100100.48;126588;1089;102934;-84
2021/07/12 01:54:02;;;;;;;34.47;24.33;;;;;;;19.44;92.96;100092.55;126591;1090;113785;-82
2021/07/12 01:56:59;;;;;;;29.70;22.30;;;;;;;19.38;92.83;100108.84;126651;1088;102937;-84
2021/07/12 02:00:06;;;;;;;29.37;23.03;;;;;;;19.33;92.70;100107.37;126570;1090;114619;-84
2021/07/12 02:03:19;;;;;;;33.10;22.37;;;;;;;19.34;92.53;100097.64;126233;1092;103105;-85
2021/07/12 02:06:11;;;;;;;30.60;22.10;;;;;;;19.35;92.81;100098.48;126150;1091;114562;-85
2021/07/12 02:09:00;;;;;;;29.93;22.83;;;;;;;19.35;93.07;100101.97;126277;1093;102932;-84
2021/07/12 02:11:58;;;;;;;30.23;22.20;;;;;;;19.34;92.44;100102.92;126140;1093;114501;-84
2021/07/12 02:14:52;;;;;;;31.60;21.97;;;;;;;19.36;92.93;100105.45;126338;1089;102890;-84
2021/07/12 02:17:43;;;;;;;33.07;22.63;;;;;;;19.37;92.98;100094.77;126492;1090;114588;-84
2021/07/12 02:20:39;;;;;;;30.90;21.87;;;;;;;19.38;92.25;100087.67;126568;1089;103035;-84
2021/07/12 02:23:29;;;;;;;32.17;21.97;;;;;;;19.41;92.88;100082.20;126455;1092;114661;-84
2021/07/12 02:26:19;;;;;;;29.13;21.10;;;;;;;19.40;92.36;100076.06;126605;1090;103926;-84
2021/07/12 02:29:08;;;;;;;27.07;20.97;;;;;;;19.40;92.50;100083.16;126619;1090;102846;-84
2021/07/12 02:31:59;;;;;;;39.00;25.40;;;;;;;19.41;92.82;100079.55;126626;1090;101982;-84
2021/07/12 02:34:52;;;;;;;42.23;25.03;;;;;;;19.39;92.34;100081.44;126576;1090;102866;-84
2021/07/12 02:37:44;;;;;;;33.50;21.90;;;;;;;19.44;92.71;100082.81;126553;1090;114615;-84
2021/07/12 02:40:34;;;;;;;42.40;26.57;;;;;;;19.45;93.08;100073.08;126780;1090;102853;-84
2021/07/12 02:43:24;;;;;;;40.20;26.53;;;;;;;19.46;93.05;100080.06;126790;1087;114525;-83
2021/07/12 02:46:14;;;;;;;41.40;26.63;;;;;;;19.45;92.70;100071.28;126920;1087;102890;-84
2021/07/12 02:49:03;;;;;;;37.77;25.03;;;;;;;19.45;92.92;100071.28;126802;1087;114463;-83
2021/07/12 02:51:57;;;;;;;35.13;23.83;;;;;;;19.46;92.59;100072.13;126956;1087;102930;-84
2021/07/12 02:54:48;;;;;;;36.20;23.03;;;;;;;19.49;92.61;100069.25;126733;1087;114472;-84
2021/07/12 02:57:35;;;;;;;31.17;22.40;;;;;;;19.50;92.85;100060.36;126902;1087;103031;-83
2021/07/12 03:00:25;;;;;;;31.63;21.67;;;;;;;19.52;92.27;100069.03;126774;1086;114596;-84
2021/07/12 03:03:12;;;;;;;34.87;22.67;;;;;;;19.51;91.86;100072.63;126866;1087;102879;-84
2021/07/12 03:06:11;;;;;;;36.80;23.47;;;;;;;19.54;91.80;100067.15;126797;1085;114839;-84
2021/07/12 03:09:05;;;;;;;43.07;27.40;;;;;;;19.55;92.42;100064.39;126893;1087;102857;-83
2021/07/12 03:11:59;;;;;;;42.13;25.37;;;;;;;19.56;92.07;100067.88;126749;1087;113738;-83
2021/07/12 03:14:59;;;;;;;41.37;26.23;;;;;;;19.54;91.71;100067.15;126894;1087;103029;-83
2021/07/12 03:17:52;;;;;;;38.97;26.73;;;;;;;19.57;91.83;100067.80;126814;1087;114571;-83
2021/07/12 03:20:44;;;;;;;37.20;25.13;;;;;;;19.59;91.59;100060.59;126964;1087;102854;-83
2021/07/12 03:23:43;;;;;;;38.70;25.55;;;;;;;19.54;91.48;100067.15;126880;1087;102920;-83
2021/07/12 03:26:31;;;;;;;50.37;30.23;;;;;;;19.53;91.36;100060.98;126865;1087;102863;-83
2021/07/12 03:29:20;;;;;;;49.97;29.60;;;;;;;19.52;91.62;100058.45;126901;1087;102866;-83
2021/07/12 03:32:11;;;;;;;46.07;29.80;;;;;;;19.55;91.81;100058.25;126730;1087;114622;-83
2021/07/12 03:35:03;;;;;;;50.23;30.00;;;;;;;19.58;91.24;100058.91;126823;1087;103662;-83
2021/07/12 03:37:53;;;;;;;51.90;30.77;;;;;;;19.59;91.19;100071.17;126770;1087;115095;-83
2021/07/12 03:40:44;;;;;;;52.83;30.40;;;;;;;19.63;91.78;100066.50;126851;1086;102960;-83
2021/07/12 03:43:32;;;;;;;51.97;30.43;;;;;;;19.72;91.85;100071.11;126765;1087;115412;-83
2021/07/12 03:46:21;;;;;;;49.03;30.70;;;;;;;19.78;91.52;100070.68;126845;1086;102855;-84
2021/07/12 03:49:18;;;;;;;49.90;30.50;;;;;;;19.87;91.90;100072.64;126851;1085;113438;-84
2021/07/12 03:52:06;;;;;;;53.83;32.00;;;;;;;19.99;91.60;100078.00;126930;1087;102874;-84
2021/07/12 03:54:54;;;;;;;50.33;30.20;;;;;;;20.08;91.84;100061.41;126806;1087;114668;-83
2021/07/12 03:57:43;;;;;;;51.37;31.53;;;;;;;20.20;92.08;100064.00;126898;1085;103033;-83
2021/07/12 04:00:31;;;;;;;52.47;30.53;;;;;;;20.22;90.80;100063.88;126799;1087;114603;-83
2021/07/12 04:03:20;;;;;;;53.40;31.17;;;;;;;20.25;90.68;100058.35;126892;1087;102926;-83
2021/07/12 04:06:09;;;;;;;51.40;30.80;;;;;;;20.34;91.05;100062.97;126828;1087;114951;-83
2021/07/12 04:08:58;;;;;;;51.63;31.47;;;;;;;20.43;90.46;100061.45;126920;1087;102889;-83
2021/07/12 04:11:49;;;;;;;48.83;31.90;;;;;;;20.54;90.57;100052.70;126927;1087;102842;-83
2021/07/12 04:14:37;;;;;;;52.03;31.50;;;;;;;20.63;90.96;100055.47;126797;1087;115007;-83
2021/07/12 04:17:25;;;;;;;53.33;32.83;;;;;;;20.75;90.26;100056.34;126842;1087;103007;-83
2021/07/12 04:20:15;;;;;;;48.97;33.43;;;;;;;20.88;90.67;100059.73;126854;1087;114619;-81
2021/07/12 04:23:05;;;;;;;60.73;34.97;;;;;;;20.99;90.59;100053.58;126892;1087;102879;-83
2021/07/12 04:25:53;;;;;;;58.20;35.00;;;;;;;21.04;90.10;100044.31;126804;1087;114903;-83
2021/07/12 04:28:41;;;;;;;50.57;33.47;;;;;;;21.19;90.67;100038.77;126805;1087;102706;-83
2021/07/12 04:31:28;;;;;;;52.33;36.30;;;;;;;21.29;89.75;100039.73;126773;1086;114646;-81
2021/07/12 04:34:18;;;;;;;63.10;37.10;;;;;;;21.38;88.22;100033.72;126874;1086;103152;-83
2021/07/12 04:37:06;;;;;;;58.07;35.93;;;;;;;21.47;86.87;100030.30;126796;1087;114485;-83
2021/07/12 04:39:56;;;;;;;59.17;35.00;;;;;;;21.57;86.32;100033.07;126876;1087;103461;-83
2021/07/12 04:42:44;;;;;;;61.20;36.33;;;;;;;21.66;85.69;100033.15;126773;1087;114749;-83
2021/07/12 04:45:32;;;;;;;55.47;35.03;;;;;;;21.79;85.11;100032.16;126881;1087;102696;-83
2021/07/12 04:48:28;;;;;;;57.35;36.65;;;;;;;21.94;84.65;100034.39;126781;1087;113697;-83
2021/07/12 04:51:16;;;;;;;59.37;37.47;;;;;;;22.08;84.24;100027.94;126994;1088;102132;-81
2021/07/12 04:54:05;;;;;;;54.03;35.43;;;;;;;22.18;83.64;100023.56;126941;1087;101744;-81
2021/07/12 04:56:52;;;;;;;55.47;35.33;;;;;;;22.33;83.13;100017.94;126784;1087;113204;-81
2021/07/12 04:59:49;;;;;;;55.57;35.60;;;;;;;22.49;83.07;100026.30;126890;1087;105957;-82
2021/07/12 05:02:38;;;;;;;55.67;37.03;;;;;;;22.65;82.57;100028.48;126778;1087;114840;-83
2021/07/12 05:05:27;;;;;;;54.57;33.50;;;;;;;22.80;82.55;100027.14;126940;1087;101749;-83
2021/07/12 05:08:15;;;;;;;50.97;33.97;;;;;;;22.99;82.22;100029.10;126802;1087;114715;-83
2021/07/12 05:11:04;;;;;;;49.83;34.13;;;;;;;23.17;81.65;100030.99;126787;1087;103046;-83
2021/07/12 05:13:53;;;;;;;46.87;32.17;;;;;;;23.33;81.66;100029.61;126795;1087;114163;-83
2021/07/12 05:16:41;;;;;;;51.03;32.93;;;;;;;23.56;80.59;100032.91;126832;1087;102841;-83
2021/07/12 05:19:28;;;;;;;40.03;29.97;;;;;;;23.77;79.98;100031.84;126766;1087;114868;-83
2021/07/12 05:22:16;;;;;;;46.63;32.50;;;;;;;24.01;79.40;100038.58;126919;1086;102817;-83
2021/07/12 05:25:05;;;;;;;51.17;34.13;;;;;;;24.29;79.13;100032.43;126776;1087;115412;-83
2021/07/12 05:27:53;;;;;;;44.83;32.30;;;;;;;24.56;77.72;100039.66;126878;1090;102786;-83
2021/07/12 05:30:41;;;;;;;46.67;34.23;;;;;;;24.78;77.43;100041.17;126714;1090;114774;-83
2021/07/12 05:33:29;;;;;;;43.93;32.23;;;;;;;25.00;76.44;100027.50;126848;1090;102850;-83
2021/07/12 05:36:17;;;;;;;47.03;33.23;;;;;;;25.24;76.30;100028.78;126844;1089;102885;-83
2021/07/12 05:39:05;;;;;;;41.60;32.43;;;;;;;25.49;74.88;100029.89;126682;1088;113271;-83
2021/07/12 05:41:53;;;;;;;40.80;31.50;;;;;;;25.70;74.57;100032.34;126828;1089;102959;-83
2021/07/12 05:44:41;;;;;;;42.23;31.07;;;;;;;25.90;74.32;100024.02;126776;1090;114714;-82
2021/07/12 05:47:29;;;;;;;39.77;28.07;;;;;;;26.11;74.01;100028.20;126897;1089;103307;-82
2021/07/12 05:50:16;;;;;;;35.63;25.93;;;;;;;26.52;72.39;100020.52;126698;1090;115358;-83
2021/07/12 05:53:05;;;;;;;31.70;23.83;;;;;;;27.43;72.20;100018.97;126683;1090;102921;-83
2021/07/12 05:55:53;;;;;;;25.07;21.40;;;;;;;28.91;70.14;100024.25;126697;1090;114489;-83
2021/07/12 05:58:41;;;;;;;23.30;19.53;;;;;;;30.44;66.67;100014.57;126823;1089;102879;-83
2021/07/12 06:01:28;;;;;;;21.50;16.93;;;;;;;31.93;64.06;100008.85;126792;1089;113553;-81
2021/07/12 06:04:17;;;;;;;18.87;16.87;;;;;;;33.23;60.71;100003.77;126726;1089;103023;-81
2021/07/12 06:07:04;;;;;;;16.70;14.47;;;;;;;34.42;58.21;99999.42;126656;1089;115021;-81
2021/07/12 06:09:52;;;;;;;16.77;14.60;;;;;;;35.54;55.74;100000.13;126915;1090;102919;-82
2021/07/12 06:12:40;;;;;;;15.13;13.53;;;;;;;36.71;54.09;99996.70;126826;1089;103019;-81
2021/07/12 06:15:28;;;;;;;16.97;14.20;;;;;;;37.58;50.93;99991.89;126938;1090;103000;-82
2021/07/12 06:18:16;;;;;;;15.93;14.27;;;;;;;38.31;49.17;99986.16;126762;1090;102862;-82
2021/07/12 06:21:04;;;;;;;13.97;12.63;;;;;;;38.94;47.08;99988.09;126819;1090;113251;-81
2021/07/12 06:23:52;;;;;;;13.40;12.00;;;;;;;39.49;45.37;99986.73;126882;1087;102962;-81
2021/07/12 06:26:40;;;;;;;11.30;10.10;;;;;;;39.93;44.63;99996.02;126773;1087;113519;-82
2021/07/12 06:29:27;;;;;;;12.53;9.87;;;;;;;40.39;43.69;99989.41;126835;1087;103056;-81
2021/07/12 06:32:16;;;;;;;10.43;9.50;;;;;;;40.63;42.21;99986.48;126775;1087;114247;-82
2021/07/12 06:35:05;;;;;;;9.50;8.63;;;;;;;41.10;40.97;99989.55;126826;1087;103037;-82
2021/07/12 06:37:52;;;;;;;9.97;7.90;;;;;;;41.45;39.67;99993.80;126769;1087;114258;-82
2021/07/12 06:40:40;;;;;;;8.33;6.90;;;;;;;41.67;38.95;99993.79;126854;1087;103297;-82
2021/07/12 06:43:28;;;;;;;6.73;6.13;;;;;;;42.04;38.34;99991.91;126790;1087;114101;-82
2021/07/12 06:46:15;;;;;;;7.50;6.23;;;;;;;42.44;37.75;99988.64;126876;1087;102869;-82
2021/07/12 06:49:04;;;;;;;6.85;5.10;;;;;;;42.71;36.60;99983.05;126838;1086;102970;-82
2021/07/12 06:51:52;;;;;;;6.00;5.43;;;;;;;42.97;36.11;99981.28;126945;1087;102885;-82
2021/07/12 06:54:39;;;;;;;5.87;5.27;;;;;;;43.28;35.27;99981.38;126833;1087;102876;-82
2021/07/12 06:57:27;;;;;;;5.10;4.55;;;;;;;43.54;35.20;99985.84;126743;1085;114169;-82
2021/07/12 07:00:15;;;;;;;6.47;5.67;;;;;;;43.92;34.76;99986.42;126868;1087;103045;-82
2021/07/12 07:03:18;;;;;;;5.70;5.00;;;;;;;44.35;33.42;99981.44;126728;1087;114133;-82
2021/07/12 07:06:06;;;;;;;6.53;5.10;;;;;;;44.74;32.73;99990.73;126895;1087;102853;-82
2021/07/12 07:08:54;;;;;;;6.00;5.33;;;;;;;45.15;32.06;99985.05;126721;1087;113901;-83
2021/07/12 07:11:42;;;;;;;6.00;5.17;;;;;;;45.17;31.19;99982.83;126870;1087;102835;-83
2021/07/12 07:14:30;;;;;;;7.07;5.07;;;;;;;44.83;30.67;99979.95;126799;1086;114297;-82
2021/07/12 07:17:18;;;;;;;8.10;5.67;;;;;;;44.06;30.87;99976.53;126864;1087;102966;-82
2021/07/12 07:20:07;;;;;;;6.07;5.20;;;;;;;43.79;31.48;99976.80;126777;1087;114251;-82
2021/07/12 07:22:55;;;;;;;8.37;4.50;;;;;;;44.10;31.68;99969.41;126890;1087;102930;-82
2021/07/12 07:25:44;;;;;;;6.67;4.97;;;;;;;44.36;31.33;99983.94;126772;1087;113024;-82
2021/07/12 07:28:32;;;;;;;11.47;6.10;;;;;;;44.74;30.59;99968.72;126907;1087;102892;-82
2021/07/12 07:31:20;;;;;;;11.05;6.35;;;;;;;45.00;30.13;99974.94;126830;1087;103457;-82
2021/07/12 07:34:09;;;;;;;13.77;12.37;;;;;;;45.35;30.20;99968.44;126759;1085;113719;-82
2021/07/12 07:36:56;;;;;;;7.80;6.30;;;;;;;45.52;29.36;99961.70;126893;1087;102981;-82
2021/07/12 07:39:44;;;;;;;8.60;5.77;;;;;;;45.59;29.29;99975.97;126819;1085;114116;-82
2021/07/12 07:42:42;;;;;;;5.77;5.20;;;;;;;45.75;28.40;99980.28;126925;1087;102847;-83
2021/07/12 07:45:32;;;;;;;7.27;4.83;;;;;;;45.88;27.56;99967.77;126790;1087;114407;-82
2021/07/12 07:48:19;;;;;;;5.40;4.90;;;;;;;46.01;28.56;99964.35;126977;1087;103025;-82
2021/07/12 07:51:08;;;;;;;5.07;4.57;;;;;;;46.17;27.12;99967.81;126785;1086;113718;-82
2021/07/12 07:53:55;;;;;;;5.80;4.40;;;;;;;46.21;27.27;99966.11;126872;1087;103345;-82
2021/07/12 07:56:43;;;;;;;6.73;5.27;;;;;;;46.24;27.03;99968.28;126839;1087;114115;-82
2021/07/12 07:59:31;;;;;;;9.80;5.10;;;;;;;46.23;27.14;99967.45;126868;1087;102840;-82
2021/07/12 08:02:26;;;;;;;5.80;5.10;;;;;;;46.31;27.18;99966.80;126862;1085;114128;-82
2021/07/12 08:05:15;;;;;;;6.33;4.80;;;;;;;46.34;26.78;99962.66;126954;1087;102845;-82
2021/07/12 08:08:04;;;;;;;6.93;4.80;;;;;;;46.32;26.57;99956.59;126833;1087;114520;-82
2021/07/12 08:10:52;;;;;;;6.83;5.07;;;;;;;46.34;26.46;99957.97;126935;1087;104310;-82
2021/07/12 08:13:40;;;;;;;8.60;4.60;;;;;;;46.34;25.89;99952.45;126943;1087;102934;-82
2021/07/12 08:16:32;;;;;;;5.83;5.17;;;;;;;46.40;26.87;99944.97;126892;1087;112860;-83
2021/07/12 08:19:21;;;;;;;6.30;4.70;;;;;;;46.38;25.96;99941.66;126879;1087;103025;-82
2021/07/12 08:22:25;;;;;;;6.87;4.50;;;;;;;46.29;26.50;99954.42;126771;1085;114262;-82
2021/07/12 08:25:14;;;;;;;8.03;5.27;;;;;;;46.22;26.45;99951.20;126950;1087;102962;-82
2021/07/12 08:28:04;;;;;;;7.40;5.13;;;;;;;46.20;25.78;99951.50;126824;1087;113080;-82
2021/07/12 08:30:53;;;;;;;6.23;4.80;;;;;;;46.15;25.80;99953.50;126938;1087;103015;-82
2021/07/12 08:33:42;;;;;;;5.97;4.53;;;;;;;46.20;25.66;99950.68;126837;1087;114078;-82
2021/07/12 08:36:30;;;;;;;6.27;4.70;;;;;;;46.25;25.25;99953.38;126857;1087;102934;-81
2021/07/12 08:39:20;;;;;;;8.73;5.20;;;;;;;46.18;25.63;99955.67;126784;1087;114182;-82
2021/07/12 08:42:11;;;;;;;5.70;5.00;;;;;;;45.91;26.07;99951.48;126858;1087;103016;-82
2021/07/12 08:44:59;;;;;;;7.07;4.40;;;;;;;45.75;26.36;99953.55;126699;1087;114201;-82
2021/07/12 08:47:47;;;;;;;5.60;5.03;;;;;;;45.71;25.67;99948.91;126935;1086;102997;-82
2021/07/12 08:50:35;;;;;;;6.83;5.10;;;;;;;45.51;25.88;99954.55;126775;1087;114188;-82
2021/07/12 08:53:23;;;;;;;6.30;4.43;;;;;;;45.41;25.87;99949.93;126899;1087;102929;-82
2021/07/12 08:56:11;;;;;;;8.37;6.00;;;;;;;45.38;24.19;99950.52;126765;1087;114269;-82
2021/07/12 08:58:59;;;;;;;6.05;5.45;;;;;;;45.18;25.37;99945.94;126872;1087;103523;-82
2021/07/12 09:02:04;;;;;;;9.25;5.15;;;;;;;45.00;26.06;99944.67;126877;1087;102937;-82
2021/07/12 09:04:53;;;;;;;8.63;5.40;;;;;;;44.86;26.05;99938.92;126765;1087;113957;-82
2021/07/12 09:07:41;;;;;;;7.37;5.30;;;;;;;44.86;25.66;99944.43;126897;1087;101789;-82
2021/07/12 09:10:29;;;;;;;7.47;5.23;;;;;;;44.88;24.08;99941.42;126809;1087;114157;-82
2021/07/12 09:13:16;;;;;;;11.33;5.40;;;;;;;44.81;24.08;99938.95;126872;1089;102811;-82
2021/07/12 09:16:27;;;;;;;10.37;5.53;;;;;;;44.41;23.96;99936.35;126795;1087;114333;-82
2021/07/12 09:19:21;;;;;;;12.63;5.93;;;;;;;43.96;24.06;99941.63;127002;1085;102960;-82
2021/07/12 09:22:11;;;;;;;8.10;5.80;;;;;;;43.53;23.97;99943.00;126913;1087;113371;-81
2021/07/12 09:25:02;;;;;;;6.23;5.00;;;;;;;43.21;24.96;99939.63;126924;1088;101787;-81
2021/07/12 09:27:56;;;;;;;7.97;5.37;;;;;;;43.02;24.80;99937.39;126875;1086;114079;-81
2021/07/12 09:30:43;;;;;;;6.53;4.93;;;;;;;42.80;25.10;99934.83;126893;1087;102879;-81
2021/07/12 09:33:32;;;;;;;6.30;5.00;;;;;;;42.37;22.81;99941.44;126840;1087;112970;-81
2021/07/12 09:36:22;;;;;;;9.60;6.07;;;;;;;41.59;24.01;99941.10;127012;1087;102852;-81
2021/07/12 09:39:49;;;;;;;9.33;5.77;;;;;;;40.92;25.00;99946.12;126878;1086;113358;-81
2021/07/12 09:42:44;;;;;;;6.93;5.83;;;;;;;40.64;26.18;99938.92;126977;1087;102938;-80
2021/07/12 09:45:38;;;;;;;6.23;5.63;;;;;;;40.62;26.54;99946.56;126822;1087;113922;-80
2021/07/12 09:48:26;;;;;;;9.33;6.17;;;;;;;40.51;26.15;99942.85;126963;1087;102921;-80
2021/07/12 09:51:31;;;;;;;7.00;6.30;;;;;;;40.29;27.17;99944.70;126781;1087;113089;-80
2021/07/12 09:54:31;;;;;;;6.80;6.10;;;;;;;40.16;27.17;99937.68;126882;1087;102642;-82
2021/07/12 09:57:22;;;;;;;9.57;6.37;;;;;;;40.19;27.10;99937.17;126852;1086;113877;-80
2021/07/12 10:00:14;;;;;;;9.17;6.63;;;;;;;39.93;26.27;99938.67;126940;1087;102876;-81
2021/07/12 10:03:02;;;;;;;9.47;5.83;;;;;;;39.68;27.59;99932.78;126878;1085;114106;-81
2021/07/12 10:05:52;;;;;;;6.97;5.60;;;;;;;39.85;27.89;99928.15;126887;1087;104609;-81
2021/07/12 10:08:40;;;;;;;11.40;5.80;;;;;;;39.80;26.91;99923.45;126880;1087;114244;-81
2021/07/12 10:11:31;;;;;;;8.77;6.60;;;;;;;39.69;27.00;99918.91;127005;1085;102994;-81
2021/07/12 10:14:20;;;;;;;7.77;5.90;;;;;;;39.24;25.69;99921.63;126985;1087;102882;-81
2021/07/12 10:17:09;;;;;;;6.00;5.33;;;;;;;38.87;27.35;99916.53;126766;1087;113803;-82
2021/07/12 10:19:57;;;;;;;6.97;5.47;;;;;;;38.93;27.94;99903.81;126967;1087;102850;-82
2021/07/12 10:22:46;;;;;;;7.20;5.60;;;;;;;38.98;27.26;99902.03;126818;1087;114223;-81
2021/07/12 10:25:36;;;;;;;8.30;6.10;;;;;;;38.97;28.17;99905.84;126902;1087;102929;-82
2021/07/12 10:28:41;;;;;;;8.80;5.93;;;;;;;38.89;26.63;99916.28;126809;1087;114210;-82
2021/07/12 10:31:32;;;;;;;9.03;5.33;;;;;;;38.64;26.83;99908.44;126969;1087;102923;-83
2021/07/12 10:34:36;;;;;;;8.53;6.13;;;;;;;38.57;27.04;99907.69;126798;1087;114233;-82
2021/07/12 10:37:39;;;;;;;6.97;5.50;;;;;;;38.43;27.17;99906.32;126866;1085;102806;-82
2021/07/12 10:40:53;;;;;;;10.80;5.78;;;;;;;38.08;25.94;99918.87;126839;1087;113144;-82
2021/07/12 10:43:45;;;;;;;9.87;5.80;;;;;;;37.30;26.83;99910.06;126882;1087;102748;-82
2021/07/12 10:46:36;;;;;;;6.37;5.77;;;;;;;36.82;28.58;99900.05;126819;1087;114515;-82
2021/07/12 10:49:37;;;;;;;8.83;6.80;;;;;;;36.62;29.16;99905.66;126913;1085;102866;-82
2021/07/12 10:52:51;;;;;;;9.50;7.10;;;;;;;36.43;28.66;99904.02;126705;1085;114249;-81
2021/07/12 10:55:42;;;;;;;8.17;5.83;;;;;;;35.71;28.18;99909.02;126808;1085;102868;-82
2021/07/12 10:58:30;;;;;;;11.10;6.43;;;;;;;35.32;30.00;99891.14;126754;1087;114128;-82
2021/07/12 11:01:35;;;;;;;9.57;6.63;;;;;;;35.07;30.58;99896.52;126883;1087;101636;-82
2021/07/12 11:04:32;;;;;;;15.43;7.80;;;;;;;34.76;30.88;99889.95;126792;1087;114185;-81
2021/07/12 11:07:41;;;;;;;10.95;6.28;;;;;;;34.60;31.78;99887.73;126951;1087;102976;-81
2021/07/12 11:10:31;;;;;;;7.30;5.57;;;;;;;34.41;29.29;99883.21;126826;1087;113074;-80
2021/07/12 11:13:19;;;;;;;14.87;5.83;;;;;;;34.20;30.32;99878.87;126962;1087;103380;-81
2021/07/12 11:16:21;;;;;;;10.53;5.80;;;;;;;34.02;30.38;99881.39;126850;1087;113085;-80
2021/07/12 11:19:43;;;;;;;6.57;5.57;;;;;;;33.85;30.64;99884.53;126957;1086;102942;-81
2021/07/12 11:22:32;;;;;;;8.83;6.30;;;;;;;33.47;30.34;99889.70;126772;1085;114176;-81
2021/07/12 11:25:41;;;;;;;9.67;5.97;;;;;;;33.22;29.98;99866.98;126918;1087;103023;-81
2021/07/12 11:28:43;;;;;;;16.33;6.30;;;;;;;32.76;30.62;99862.23;126903;1085;112951;-80
2021/07/12 11:31:57;;;;;;;13.83;6.87;;;;;;;32.58;31.40;99861.95;126947;1087;102897;-80
2021/07/12 11:34:48;;;;;;;9.83;6.40;;;;;;;32.52;31.80;99851.98;126844;1087;114146;-80
2021/07/12 11:37:36;;;;;;;12.70;5.40;;;;;;;32.51;31.23;99859.24;126863;1087;102941;-80
2021/07/12 11:40:27;;;;;;;7.17;5.40;;;;;;;32.56;30.99;99847.83;126824;1087;114455;-80
2021/07/12 11:43:26;;;;;;;18.13;7.10;;;;;;;32.58;31.77;99840.36;126904;1087;101070;-81
2021/07/12 11:46:14;;;;;;;11.13;6.00;;;;;;;32.66;31.26;99815.88;126718;1087;114210;-81
2021/07/12 11:49:09;;;;;;;8.60;6.00;;;;;;;32.70;31.32;99803.65;126841;1086;102904;-81
2021/07/12 11:51:58;;;;;;;8.20;6.40;;;;;;;32.71;30.50;99818.81;126821;1087;113048;-81
2021/07/12 11:54:46;;;;;;;9.17;6.20;;;;;;;32.64;31.24;99818.77;126876;1087;102328;-81
2021/07/12 11:57:36;;;;;;;13.40;6.83;;;;;;;32.58;31.83;99799.86;126737;1087;114774;-81
2021/07/12 12:00:27;;;;;;;21.80;7.63;;;;;;;32.65;32.32;99798.01;126881;1087;102839;-81
2021/07/12 12:03:16;;;;;;;6.07;5.47;;;;;;;32.54;31.18;99795.91;126789;1087;114519;-81
2021/07/12 12:06:04;;;;;;;14.67;6.63;;;;;;;32.61;30.81;99796.75;126883;1087;102864;-81
2021/07/12 12:09:00;;;;;;;8.73;5.97;;;;;;;32.67;30.83;99810.27;126778;1089;114197;-81
2021/07/12 12:11:48;;;;;;;9.97;6.00;;;;;;;32.62;30.61;99820.02;126881;1087;102871;-81
2021/07/12 12:14:37;;;;;;;8.07;5.50;;;;;;;32.55;30.68;99825.41;126881;1087;103020;-81
2021/07/12 12:17:26;;;;;;;7.67;5.93;;;;;;;32.48;30.98;99807.50;126811;1087;113882;-80
2021/07/12 12:20:26;;;;;;;7.47;5.70;;;;;;;32.49;31.34;99790.27;126922;1087;102895;-80
2021/07/12 12:23:17;;;;;;;9.47;6.30;;;;;;;32.32;31.63;99781.72;126783;1087;114173;-80
2021/07/12 12:26:08;;;;;;;8.97;6.37;;;;;;;32.13;31.47;99775.97;126965;1086;101063;-80
2021/07/12 12:28:57;;;;;;;7.20;6.20;;;;;;;31.93;31.34;99771.50;126822;1087;113840;-80
2021/07/12 12:31:45;;;;;;;6.90;5.90;;;;;;;31.81;31.19;99776.64;126888;1087;102344;-80
2021/07/12 12:34:33;;;;;;;9.27;6.20;;;;;;;31.71;31.86;99784.20;126815;1087;114123;-82
2021/07/12 12:37:20;;;;;;;9.00;5.93;;;;;;;31.61;31.87;99779.18;126879;1087;102842;-80
2021/07/12 12:40:19;;;;;;;12.23;6.43;;;;;;;31.62;31.95;99780.01;126698;1090;113951;-80
2021/07/12 12:43:18;;;;;;;8.70;5.97;;;;;;;31.55;31.32;99788.86;126928;1087;102968;-81
2021/07/12 12:46:06;;;;;;;8.40;6.40;;;;;;;31.50;31.39;99788.63;126846;1087;112985;-80
2021/07/12 12:48:54;;;;;;;7.83;6.13;;;;;;;31.48;32.46;99795.24;126912;1085;103005;-80
2021/07/12 12:51:59;;;;;;;7.60;6.40;;;;;;;31.51;31.84;99775.98;126832;1087;114406;-80
2021/07/12 12:54:52;;;;;;;9.73;6.40;;;;;;;31.53;31.99;99776.61;126809;1087;102935;-81
2021/07/12 12:57:42;;;;;;;13.83;7.00;;;;;;;31.49;32.26;99802.30;126813;1085;114089;-80
2021/07/12 13:00:32;;;;;;;17.13;7.20;;;;;;;31.51;32.71;99778.67;126941;1087;102881;-80